sensor_id;sensor_type;location;lat;lon;timestamp;P1;durP1;ratioP1;P2;durP2;ratioP2
30151;SDS011;16963;26.018;-80.216;2022-07-23T00:02:24;13.82;;;4.13;;
30151;SDS011;16963;26.018;-80.216;2022-07-23T00:04:57;15.88;;;4.05;;
30151;SDS011;16963;26.018;-80.216;2022-07-23T00:07:25;15.25;;;3.75;;
30151;SDS011;16963;26.018;-80.216;2022-07-23T00:09:54;19.40;;;4.38;;
30151;SDS011;16963;26.018;-80.216;2022-07-23T00:12:42;14.93;;;3.85;;
30151;SDS011;16963;26.018;-80.216;2022-07-23T00:15:18;18.25;;;4.32;;
30151;SDS011;16963;26.018;-80.216;2022-07-23T00:17:45;15.85;;;4.70;;
30151;SDS011;16963;26.018;-80.216;2022-07-23T00:20:14;14.90;;;3.70;;
30151;SDS011;16963;26.018;-80.216;2022-07-23T00:22:49;15.68;;;3.92;;
30151;SDS011;16963;26.018;-80.216;2022-07-23T00:25:18;15.27;;;3.92;;
30151;SDS011;16963;26.018;-80.216;2022-07-23T00:27:57;15.02;;;4.18;;
30151;SDS011;16963;26.018;-80.216;2022-07-23T00:30:25;19.42;;;5.05;;
30151;SDS011;16963;26.018;-80.216;2022-07-23T00:32:58;15.15;;;3.53;;
30151;SDS011;16963;26.018;-80.216;2022-07-23T00:35:39;12.55;;;3.20;;
30151;SDS011;16963;26.018;-80.216;2022-07-23T00:38:09;17.63;;;4.65;;
30151;SDS011;16963;26.018;-80.216;2022-07-23T00:40:38;14.88;;;3.70;;
30151;SDS011;16963;26.018;-80.216;2022-07-23T00:43:06;19.42;;;3.95;;
30151;SDS011;16963;26.018;-80.216;2022-07-23T00:45:35;15.02;;;3.67;;
30151;SDS011;16963;26.018;-80.216;2022-07-23T00:48:03;17.02;;;4.38;;
30151;SDS011;16963;26.018;-80.216;2022-07-23T00:50:34;14.77;;;3.97;;
30151;SDS011;16963;26.018;-80.216;2022-07-23T00:53:01;14.93;;;3.83;;
30151;SDS011;16963;26.018;-80.216;2022-07-23T00:57:38;15.77;;;4.38;;
30151;SDS011;16963;26.018;-80.216;2022-07-23T01:00:09;16.10;;;4.97;;
30151;SDS011;16963;26.018;-80.216;2022-07-23T01:02:39;16.65;;;3.53;;
30151;SDS011;16963;26.018;-80.216;2022-07-23T01:05:09;18.83;;;4.50;;
30151;SDS011;16963;26.018;-80.216;2022-07-23T01:07:37;17.35;;;4.32;;
30151;SDS011;16963;26.018;-80.216;2022-07-23T01:10:06;17.25;;;4.53;;
30151;SDS011;16963;26.018;-80.216;2022-07-23T01:12:56;16.65;;;4.47;;
30151;SDS011;16963;26.018;-80.216;2022-07-23T01:15:28;18.02;;;4.93;;
30151;SDS011;16963;26.018;-80.216;2022-07-23T01:20:35;16.05;;;4.05;;
30151;SDS011;16963;26.018;-80.216;2022-07-23T01:23:03;17.38;;;4.20;;
30151;SDS011;16963;26.018;-80.216;2022-07-23T01:28:02;16.25;;;4.10;;
30151;SDS011;16963;26.018;-80.216;2022-07-23T01:30:31;14.10;;;3.22;;
30151;SDS011;16963;26.018;-80.216;2022-07-23T01:33:00;15.90;;;4.57;;
30151;SDS011;16963;26.018;-80.216;2022-07-23T01:35:28;13.60;;;4.03;;
30151;SDS011;16963;26.018;-80.216;2022-07-23T01:38:00;17.73;;;3.97;;
30151;SDS011;16963;26.018;-80.216;2022-07-23T01:40:29;17.27;;;4.90;;
30151;SDS011;16963;26.018;-80.216;2022-07-23T01:42:57;12.05;;;3.70;;
30151;SDS011;16963;26.018;-80.216;2022-07-23T01:47:47;13.68;;;3.65;;
30151;SDS011;16963;26.018;-80.216;2022-07-23T01:50:15;16.47;;;4.07;;
30151;SDS011;16963;26.018;-80.216;2022-07-23T01:53:01;16.85;;;3.50;;
30151;SDS011;16963;26.018;-80.216;2022-07-23T01:55:29;14.52;;;3.08;;
30151;SDS011;16963;26.018;-80.216;2022-07-23T01:57:56;17.00;;;4.13;;
30151;SDS011;16963;26.018;-80.216;2022-07-23T02:00:27;13.95;;;3.47;;
30151;SDS011;16963;26.018;-80.216;2022-07-23T02:02:55;11.65;;;3.53;;
30151;SDS011;16963;26.018;-80.216;2022-07-23T02:05:37;17.65;;;4.03;;
30151;SDS011;16963;26.018;-80.216;2022-07-23T02:08:08;17.85;;;4.20;;
30151;SDS011;16963;26.018;-80.216;2022-07-23T02:10:37;15.95;;;4.32;;
30151;SDS011;16963;26.018;-80.216;2022-07-23T02:13:04;19.60;;;4.53;;
30151;SDS011;16963;26.018;-80.216;2022-07-23T02:15:36;18.45;;;3.58;;
30151;SDS011;16963;26.018;-80.216;2022-07-23T02:18:04;15.48;;;3.00;;
30151;SDS011;16963;26.018;-80.216;2022-07-23T02:20:34;15.07;;;3.58;;
30151;SDS011;16963;26.018;-80.216;2022-07-23T02:23:07;13.52;;;3.40;;
30151;SDS011;16963;26.018;-80.216;2022-07-23T02:28:31;12.27;;;3.35;;
30151;SDS011;16963;26.018;-80.216;2022-07-23T02:30:58;15.55;;;3.80;;
30151;SDS011;16963;26.018;-80.216;2022-07-23T02:33:26;13.80;;;3.20;;
30151;SDS011;16963;26.018;-80.216;2022-07-23T02:35:55;17.95;;;3.78;;
30151;SDS011;16963;26.018;-80.216;2022-07-23T02:38:22;12.38;;;3.70;;
30151;SDS011;16963;26.018;-80.216;2022-07-23T02:40:50;14.13;;;4.07;;
30151;SDS011;16963;26.018;-80.216;2022-07-23T02:43:18;18.48;;;4.20;;
30151;SDS011;16963;26.018;-80.216;2022-07-23T02:45:46;15.27;;;3.97;;
30151;SDS011;16963;26.018;-80.216;2022-07-23T02:50:42;14.48;;;3.80;;
30151;SDS011;16963;26.018;-80.216;2022-07-23T02:53:13;11.02;;;3.17;;
30151;SDS011;16963;26.018;-80.216;2022-07-23T02:55:41;13.18;;;4.00;;
30151;SDS011;16963;26.018;-80.216;2022-07-23T02:58:12;13.13;;;3.97;;
30151;SDS011;16963;26.018;-80.216;2022-07-23T03:00:39;12.57;;;3.72;;
30151;SDS011;16963;26.018;-80.216;2022-07-23T03:03:09;12.93;;;4.35;;
30151;SDS011;16963;26.018;-80.216;2022-07-23T03:05:37;13.33;;;3.90;;
30151;SDS011;16963;26.018;-80.216;2022-07-23T03:08:04;14.88;;;3.83;;
30151;SDS011;16963;26.018;-80.216;2022-07-23T03:10:36;13.50;;;3.55;;
30151;SDS011;16963;26.018;-80.216;2022-07-23T03:13:02;13.77;;;3.58;;
30151;SDS011;16963;26.018;-80.216;2022-07-23T03:15:41;21.30;;;3.92;;
30151;SDS011;16963;26.018;-80.216;2022-07-23T03:18:09;15.18;;;3.65;;
30151;SDS011;16963;26.018;-80.216;2022-07-23T03:20:37;16.65;;;4.00;;
30151;SDS011;16963;26.018;-80.216;2022-07-23T03:23:04;19.92;;;3.55;;
30151;SDS011;16963;26.018;-80.216;2022-07-23T03:25:32;15.98;;;4.05;;
30151;SDS011;16963;26.018;-80.216;2022-07-23T03:27:59;17.58;;;3.65;;
30151;SDS011;16963;26.018;-80.216;2022-07-23T03:30:28;14.73;;;3.30;;
30151;SDS011;16963;26.018;-80.216;2022-07-23T03:32:56;13.05;;;3.03;;
30151;SDS011;16963;26.018;-80.216;2022-07-23T03:38:07;10.98;;;2.53;;
30151;SDS011;16963;26.018;-80.216;2022-07-23T03:40:36;10.93;;;2.70;;
30151;SDS011;16963;26.018;-80.216;2022-07-23T03:43:04;13.88;;;2.85;;
30151;SDS011;16963;26.018;-80.216;2022-07-23T03:45:32;11.75;;;3.00;;
30151;SDS011;16963;26.018;-80.216;2022-07-23T03:48:00;10.30;;;2.55;;
30151;SDS011;16963;26.018;-80.216;2022-07-23T03:50:30;14.85;;;3.22;;
30151;SDS011;16963;26.018;-80.216;2022-07-23T03:52:57;10.88;;;2.80;;
30151;SDS011;16963;26.018;-80.216;2022-07-23T03:55:26;15.07;;;2.80;;
30151;SDS011;16963;26.018;-80.216;2022-07-23T03:58:08;10.45;;;2.78;;
30151;SDS011;16963;26.018;-80.216;2022-07-23T04:03:03;9.95;;;2.38;;
30151;SDS011;16963;26.018;-80.216;2022-07-23T04:05:34;7.88;;;1.92;;
30151;SDS011;16963;26.018;-80.216;2022-07-23T04:08:05;7.07;;;1.85;;
30151;SDS011;16963;26.018;-80.216;2022-07-23T04:10:38;11.73;;;2.22;;
30151;SDS011;16963;26.018;-80.216;2022-07-23T04:13:08;10.40;;;1.77;;
30151;SDS011;16963;26.018;-80.216;2022-07-23T04:15:37;7.60;;;1.98;;
30151;SDS011;16963;26.018;-80.216;2022-07-23T04:18:05;7.00;;;1.60;;
30151;SDS011;16963;26.018;-80.216;2022-07-23T04:20:53;6.30;;;1.60;;
30151;SDS011;16963;26.018;-80.216;2022-07-23T04:25:31;6.20;;;1.40;;
30151;SDS011;16963;26.018;-80.216;2022-07-23T04:27:59;4.68;;;1.58;;
30151;SDS011;16963;26.018;-80.216;2022-07-23T04:30:26;5.50;;;1.25;;
30151;SDS011;16963;26.018;-80.216;2022-07-23T04:32:55;7.45;;;1.27;;
30151;SDS011;16963;26.018;-80.216;2022-07-23T04:35:27;7.70;;;1.50;;
30151;SDS011;16963;26.018;-80.216;2022-07-23T04:38:07;7.55;;;1.73;;
30151;SDS011;16963;26.018;-80.216;2022-07-23T04:40:36;9.93;;;1.83;;
30151;SDS011;16963;26.018;-80.216;2022-07-23T04:43:04;7.97;;;1.77;;
30151;SDS011;16963;26.018;-80.216;2022-07-23T04:45:43;7.75;;;1.55;;
30151;SDS011;16963;26.018;-80.216;2022-07-23T04:48:11;6.50;;;1.48;;
30151;SDS011;16963;26.018;-80.216;2022-07-23T04:50:39;8.00;;;1.60;;
30151;SDS011;16963;26.018;-80.216;2022-07-23T04:53:13;7.78;;;1.73;;
30151;SDS011;16963;26.018;-80.216;2022-07-23T04:55:42;10.00;;;1.35;;
30151;SDS011;16963;26.018;-80.216;2022-07-23T04:58:10;8.45;;;1.90;;
30151;SDS011;16963;26.018;-80.216;2022-07-23T05:00:37;7.72;;;1.90;;
30151;SDS011;16963;26.018;-80.216;2022-07-23T05:03:05;6.38;;;1.50;;
30151;SDS011;16963;26.018;-80.216;2022-07-23T05:05:35;12.50;;;1.75;;
30151;SDS011;16963;26.018;-80.216;2022-07-23T05:08:09;7.47;;;1.75;;
30151;SDS011;16963;26.018;-80.216;2022-07-23T05:10:46;9.15;;;2.85;;
30151;SDS011;16963;26.018;-80.216;2022-07-23T05:13:17;8.32;;;2.38;;
30151;SDS011;16963;26.018;-80.216;2022-07-23T05:15:45;9.00;;;2.65;;
30151;SDS011;16963;26.018;-80.216;2022-07-23T05:18:15;10.07;;;2.03;;
30151;SDS011;16963;26.018;-80.216;2022-07-23T05:20:43;7.82;;;2.00;;
30151;SDS011;16963;26.018;-80.216;2022-07-23T05:23:14;8.45;;;1.80;;
30151;SDS011;16963;26.018;-80.216;2022-07-23T05:25:42;6.75;;;1.77;;
30151;SDS011;16963;26.018;-80.216;2022-07-23T05:28:10;4.78;;;1.50;;
30151;SDS011;16963;26.018;-80.216;2022-07-23T05:30:38;7.88;;;2.35;;
30151;SDS011;16963;26.018;-80.216;2022-07-23T05:33:08;5.75;;;1.95;;
30151;SDS011;16963;26.018;-80.216;2022-07-23T05:37:59;7.47;;;2.00;;
30151;SDS011;16963;26.018;-80.216;2022-07-23T05:40:28;8.15;;;1.98;;
30151;SDS011;16963;26.018;-80.216;2022-07-23T05:42:59;6.40;;;1.75;;
30151;SDS011;16963;26.018;-80.216;2022-07-23T05:45:28;9.00;;;2.00;;
30151;SDS011;16963;26.018;-80.216;2022-07-23T05:47:56;8.93;;;1.77;;
30151;SDS011;16963;26.018;-80.216;2022-07-23T05:50:29;9.63;;;2.20;;
30151;SDS011;16963;26.018;-80.216;2022-07-23T05:53:08;6.13;;;1.75;;
30151;SDS011;16963;26.018;-80.216;2022-07-23T05:56:01;9.10;;;1.83;;
30151;SDS011;16963;26.018;-80.216;2022-07-23T05:58:41;6.68;;;1.90;;
30151;SDS011;16963;26.018;-80.216;2022-07-23T06:01:09;5.10;;;1.58;;
30151;SDS011;16963;26.018;-80.216;2022-07-23T06:03:53;8.50;;;2.38;;
30151;SDS011;16963;26.018;-80.216;2022-07-23T06:06:22;10.05;;;3.17;;
30151;SDS011;16963;26.018;-80.216;2022-07-23T06:08:50;10.63;;;3.38;;
30151;SDS011;16963;26.018;-80.216;2022-07-23T06:11:19;11.05;;;3.03;;
30151;SDS011;16963;26.018;-80.216;2022-07-23T06:13:46;7.45;;;2.30;;
30151;SDS011;16963;26.018;-80.216;2022-07-23T06:16:16;9.40;;;2.30;;
30151;SDS011;16963;26.018;-80.216;2022-07-23T06:21:21;9.50;;;2.30;;
30151;SDS011;16963;26.018;-80.216;2022-07-23T06:24:10;5.97;;;2.10;;
30151;SDS011;16963;26.018;-80.216;2022-07-23T06:26:38;7.93;;;1.70;;
30151;SDS011;16963;26.018;-80.216;2022-07-23T06:29:05;7.88;;;2.13;;
30151;SDS011;16963;26.018;-80.216;2022-07-23T06:31:34;9.48;;;2.47;;
30151;SDS011;16963;26.018;-80.216;2022-07-23T06:34:02;8.95;;;2.60;;
30151;SDS011;16963;26.018;-80.216;2022-07-23T06:36:30;7.15;;;1.88;;
30151;SDS011;16963;26.018;-80.216;2022-07-23T06:38:57;8.27;;;2.05;;
30151;SDS011;16963;26.018;-80.216;2022-07-23T06:41:26;8.50;;;2.33;;
30151;SDS011;16963;26.018;-80.216;2022-07-23T06:43:52;8.98;;;2.50;;
30151;SDS011;16963;26.018;-80.216;2022-07-23T06:46:26;8.48;;;2.33;;
30151;SDS011;16963;26.018;-80.216;2022-07-23T06:48:57;7.20;;;2.00;;
30151;SDS011;16963;26.018;-80.216;2022-07-23T06:51:29;8.88;;;2.05;;
30151;SDS011;16963;26.018;-80.216;2022-07-23T06:54:00;10.20;;;2.30;;
30151;SDS011;16963;26.018;-80.216;2022-07-23T06:56:30;9.43;;;2.70;;
30151;SDS011;16963;26.018;-80.216;2022-07-23T07:01:26;9.63;;;1.90;;
30151;SDS011;16963;26.018;-80.216;2022-07-23T07:03:56;7.10;;;2.05;;
30151;SDS011;16963;26.018;-80.216;2022-07-23T07:06:23;7.88;;;2.53;;
30151;SDS011;16963;26.018;-80.216;2022-07-23T07:08:50;11.70;;;2.42;;
30151;SDS011;16963;26.018;-80.216;2022-07-23T07:11:29;9.25;;;2.22;;
30151;SDS011;16963;26.018;-80.216;2022-07-23T07:13:56;14.27;;;2.88;;
30151;SDS011;16963;26.018;-80.216;2022-07-23T07:16:24;11.52;;;2.78;;
30151;SDS011;16963;26.018;-80.216;2022-07-23T07:18:58;7.82;;;2.70;;
30151;SDS011;16963;26.018;-80.216;2022-07-23T07:21:26;11.40;;;2.65;;
30151;SDS011;16963;26.018;-80.216;2022-07-23T07:23:58;11.13;;;2.45;;
30151;SDS011;16963;26.018;-80.216;2022-07-23T07:26:26;8.43;;;2.65;;
30151;SDS011;16963;26.018;-80.216;2022-07-23T07:28:55;9.43;;;2.83;;
30151;SDS011;16963;26.018;-80.216;2022-07-23T07:31:38;8.90;;;2.63;;
30151;SDS011;16963;26.018;-80.216;2022-07-23T07:34:06;13.25;;;2.60;;
30151;SDS011;16963;26.018;-80.216;2022-07-23T07:36:34;9.90;;;2.30;;
30151;SDS011;16963;26.018;-80.216;2022-07-23T07:39:04;8.88;;;2.17;;
30151;SDS011;16963;26.018;-80.216;2022-07-23T07:41:33;10.17;;;2.40;;
30151;SDS011;16963;26.018;-80.216;2022-07-23T07:44:00;11.63;;;2.88;;
30151;SDS011;16963;26.018;-80.216;2022-07-23T07:46:28;11.23;;;2.25;;
30151;SDS011;16963;26.018;-80.216;2022-07-23T07:48:57;10.95;;;2.50;;
30151;SDS011;16963;26.018;-80.216;2022-07-23T07:51:26;9.98;;;2.80;;
30151;SDS011;16963;26.018;-80.216;2022-07-23T07:53:53;7.90;;;2.30;;
30151;SDS011;16963;26.018;-80.216;2022-07-23T07:56:26;7.00;;;2.25;;
30151;SDS011;16963;26.018;-80.216;2022-07-23T07:58:55;7.20;;;2.10;;
30151;SDS011;16963;26.018;-80.216;2022-07-23T08:01:23;8.82;;;2.97;;
30151;SDS011;16963;26.018;-80.216;2022-07-23T08:03:51;9.18;;;2.60;;
30151;SDS011;16963;26.018;-80.216;2022-07-23T08:06:19;8.82;;;2.40;;
30151;SDS011;16963;26.018;-80.216;2022-07-23T08:08:47;9.50;;;2.45;;
30151;SDS011;16963;26.018;-80.216;2022-07-23T08:11:16;9.60;;;2.03;;
30151;SDS011;16963;26.018;-80.216;2022-07-23T08:13:43;8.48;;;2.40;;
30151;SDS011;16963;26.018;-80.216;2022-07-23T08:18:47;9.07;;;2.60;;
30151;SDS011;16963;26.018;-80.216;2022-07-23T08:21:17;7.30;;;1.97;;
30151;SDS011;16963;26.018;-80.216;2022-07-23T08:23:44;7.43;;;2.38;;
30151;SDS011;16963;26.018;-80.216;2022-07-23T08:26:12;8.68;;;2.22;;
30151;SDS011;16963;26.018;-80.216;2022-07-23T08:28:39;8.18;;;2.72;;
30151;SDS011;16963;26.018;-80.216;2022-07-23T08:31:07;7.53;;;2.40;;
30151;SDS011;16963;26.018;-80.216;2022-07-23T08:33:39;8.48;;;2.50;;
30151;SDS011;16963;26.018;-80.216;2022-07-23T08:36:06;8.02;;;2.53;;
30151;SDS011;16963;26.018;-80.216;2022-07-23T08:38:58;8.05;;;2.53;;
30151;SDS011;16963;26.018;-80.216;2022-07-23T08:41:26;9.27;;;2.65;;
30151;SDS011;16963;26.018;-80.216;2022-07-23T08:43:53;8.98;;;2.30;;
30151;SDS011;16963;26.018;-80.216;2022-07-23T08:46:21;8.07;;;2.80;;
30151;SDS011;16963;26.018;-80.216;2022-07-23T08:48:49;10.95;;;3.28;;
30151;SDS011;16963;26.018;-80.216;2022-07-23T08:51:18;18.17;;;3.50;;
30151;SDS011;16963;26.018;-80.216;2022-07-23T08:53:46;14.80;;;4.25;;
30151;SDS011;16963;26.018;-80.216;2022-07-23T08:56:15;11.80;;;3.55;;
30151;SDS011;16963;26.018;-80.216;2022-07-23T08:58:42;14.77;;;3.40;;
30151;SDS011;16963;26.018;-80.216;2022-07-23T09:03:57;10.32;;;2.67;;
30151;SDS011;16963;26.018;-80.216;2022-07-23T09:06:24;9.77;;;3.08;;
30151;SDS011;16963;26.018;-80.216;2022-07-23T09:08:52;7.45;;;2.05;;
30151;SDS011;16963;26.018;-80.216;2022-07-23T09:11:19;6.20;;;1.90;;
30151;SDS011;16963;26.018;-80.216;2022-07-23T09:16:26;7.65;;;2.58;;
30151;SDS011;16963;26.018;-80.216;2022-07-23T09:18:58;7.32;;;2.10;;
30151;SDS011;16963;26.018;-80.216;2022-07-23T09:21:34;6.68;;;1.98;;
30151;SDS011;16963;26.018;-80.216;2022-07-23T09:24:22;4.47;;;1.80;;
30151;SDS011;16963;26.018;-80.216;2022-07-23T09:26:50;4.40;;;1.70;;
30151;SDS011;16963;26.018;-80.216;2022-07-23T09:29:24;6.20;;;1.77;;
30151;SDS011;16963;26.018;-80.216;2022-07-23T09:31:59;7.43;;;1.90;;
30151;SDS011;16963;26.018;-80.216;2022-07-23T09:34:34;6.00;;;1.92;;
30151;SDS011;16963;26.018;-80.216;2022-07-23T09:37:18;7.05;;;2.30;;
30151;SDS011;16963;26.018;-80.216;2022-07-23T09:39:47;5.00;;;1.73;;
30151;SDS011;16963;26.018;-80.216;2022-07-23T09:42:18;5.90;;;1.83;;
30151;SDS011;16963;26.018;-80.216;2022-07-23T09:45:00;8.02;;;1.85;;
30151;SDS011;16963;26.018;-80.216;2022-07-23T09:47:28;6.15;;;1.77;;
30151;SDS011;16963;26.018;-80.216;2022-07-23T09:50:10;8.18;;;2.50;;
30151;SDS011;16963;26.018;-80.216;2022-07-23T09:52:43;12.93;;;3.10;;
30151;SDS011;16963;26.018;-80.216;2022-07-23T09:55:16;10.40;;;2.38;;
30151;SDS011;16963;26.018;-80.216;2022-07-23T09:57:45;11.15;;;2.63;;
30151;SDS011;16963;26.018;-80.216;2022-07-23T10:00:20;9.05;;;2.50;;
30151;SDS011;16963;26.018;-80.216;2022-07-23T10:02:47;9.57;;;2.60;;
30151;SDS011;16963;26.018;-80.216;2022-07-23T10:05:28;8.82;;;2.70;;
30151;SDS011;16963;26.018;-80.216;2022-07-23T10:08:18;8.32;;;2.53;;
30151;SDS011;16963;26.018;-80.216;2022-07-23T10:11:19;8.23;;;2.70;;
30151;SDS011;16963;26.018;-80.216;2022-07-23T10:16:51;9.15;;;3.15;;
30151;SDS011;16963;26.018;-80.216;2022-07-23T10:19:18;7.03;;;2.72;;
30151;SDS011;16963;26.018;-80.216;2022-07-23T10:21:47;6.82;;;2.28;;
30151;SDS011;16963;26.018;-80.216;2022-07-23T10:32:36;6.47;;;2.25;;
30151;SDS011;16963;26.018;-80.216;2022-07-23T10:35:18;8.18;;;3.00;;
30151;SDS011;16963;26.018;-80.216;2022-07-23T10:39:11;10.13;;;2.40;;
30151;SDS011;16963;26.018;-80.216;2022-07-23T10:41:44;10.65;;;2.78;;
30151;SDS011;16963;26.018;-80.216;2022-07-23T10:44:18;8.07;;;2.42;;
30151;SDS011;16963;26.018;-80.216;2022-07-23T10:46:56;7.18;;;2.15;;
30151;SDS011;16963;26.018;-80.216;2022-07-23T10:49:43;9.98;;;3.63;;
30151;SDS011;16963;26.018;-80.216;2022-07-23T10:54:54;8.27;;;2.90;;
30151;SDS011;16963;26.018;-80.216;2022-07-23T10:57:28;13.48;;;3.42;;
30151;SDS011;16963;26.018;-80.216;2022-07-23T11:04:03;10.98;;;3.55;;
30151;SDS011;16963;26.018;-80.216;2022-07-23T11:09:27;11.93;;;3.63;;
30151;SDS011;16963;26.018;-80.216;2022-07-23T11:12:31;8.60;;;3.22;;
30151;SDS011;16963;26.018;-80.216;2022-07-23T11:15:07;10.60;;;3.92;;
30151;SDS011;16963;26.018;-80.216;2022-07-23T11:20:22;11.13;;;4.30;;
30151;SDS011;16963;26.018;-80.216;2022-07-23T11:22:54;9.55;;;4.63;;
30151;SDS011;16963;26.018;-80.216;2022-07-23T11:28:20;11.25;;;4.57;;
30151;SDS011;16963;26.018;-80.216;2022-07-23T11:30:52;15.32;;;4.80;;
30151;SDS011;16963;26.018;-80.216;2022-07-23T11:33:20;11.63;;;5.43;;
30151;SDS011;16963;26.018;-80.216;2022-07-23T11:36:03;15.25;;;5.15;;
30151;SDS011;16963;26.018;-80.216;2022-07-23T11:38:31;10.25;;;4.32;;
30151;SDS011;16963;26.018;-80.216;2022-07-23T11:40:59;11.57;;;4.82;;
30151;SDS011;16963;26.018;-80.216;2022-07-23T11:43:27;12.23;;;5.05;;
30151;SDS011;16963;26.018;-80.216;2022-07-23T11:45:58;14.07;;;5.25;;
30151;SDS011;16963;26.018;-80.216;2022-07-23T11:48:41;16.42;;;5.45;;
30151;SDS011;16963;26.018;-80.216;2022-07-23T11:51:07;17.15;;;4.88;;
30151;SDS011;16963;26.018;-80.216;2022-07-23T11:53:45;17.25;;;5.05;;
30151;SDS011;16963;26.018;-80.216;2022-07-23T11:56:12;15.85;;;4.97;;
30151;SDS011;16963;26.018;-80.216;2022-07-23T11:58:40;15.40;;;4.80;;
30151;SDS011;16963;26.018;-80.216;2022-07-23T12:01:22;12.40;;;4.50;;
30151;SDS011;16963;26.018;-80.216;2022-07-23T12:03:52;18.05;;;4.97;;
30151;SDS011;16963;26.018;-80.216;2022-07-23T12:06:20;18.25;;;4.85;;
30151;SDS011;16963;26.018;-80.216;2022-07-23T12:08:48;13.20;;;4.25;;
30151;SDS011;16963;26.018;-80.216;2022-07-23T12:11:17;16.60;;;4.10;;
30151;SDS011;16963;26.018;-80.216;2022-07-23T12:13:57;12.95;;;4.38;;
30151;SDS011;16963;26.018;-80.216;2022-07-23T12:16:25;17.75;;;5.65;;
30151;SDS011;16963;26.018;-80.216;2022-07-23T12:18:52;16.45;;;4.03;;
30151;SDS011;16963;26.018;-80.216;2022-07-23T12:21:20;16.20;;;4.05;;
30151;SDS011;16963;26.018;-80.216;2022-07-23T12:23:48;16.73;;;4.43;;
30151;SDS011;16963;26.018;-80.216;2022-07-23T12:26:17;16.92;;;4.40;;
30151;SDS011;16963;26.018;-80.216;2022-07-23T12:28:44;16.05;;;5.22;;
30151;SDS011;16963;26.018;-80.216;2022-07-23T12:31:25;17.88;;;4.55;;
30151;SDS011;16963;26.018;-80.216;2022-07-23T12:35:55;16.92;;;4.13;;
30151;SDS011;16963;26.018;-80.216;2022-07-23T12:38:25;16.65;;;4.32;;
30151;SDS011;16963;26.018;-80.216;2022-07-23T12:43:24;13.63;;;3.38;;
30151;SDS011;16963;26.018;-80.216;2022-07-23T12:48:23;16.25;;;4.50;;
30151;SDS011;16963;26.018;-80.216;2022-07-23T12:51:08;13.15;;;3.40;;
30151;SDS011;16963;26.018;-80.216;2022-07-23T12:53:45;15.15;;;3.50;;
30151;SDS011;16963;26.018;-80.216;2022-07-23T12:59:08;17.77;;;4.10;;
30151;SDS011;16963;26.018;-80.216;2022-07-23T13:01:54;19.00;;;4.72;;
30151;SDS011;16963;26.018;-80.216;2022-07-23T13:04:25;13.32;;;3.80;;
30151;SDS011;16963;26.018;-80.216;2022-07-23T13:06:53;16.85;;;4.25;;
30151;SDS011;16963;26.018;-80.216;2022-07-23T13:09:27;15.93;;;3.67;;
30151;SDS011;16963;26.018;-80.216;2022-07-23T13:12:15;13.27;;;3.53;;
30151;SDS011;16963;26.018;-80.216;2022-07-23T13:14:43;16.65;;;3.90;;
30151;SDS011;16963;26.018;-80.216;2022-07-23T13:17:33;13.73;;;3.72;;
30151;SDS011;16963;26.018;-80.216;2022-07-23T13:20:00;16.50;;;3.45;;
30151;SDS011;16963;26.018;-80.216;2022-07-23T13:22:27;16.25;;;3.65;;
30151;SDS011;16963;26.018;-80.216;2022-07-23T13:24:55;15.00;;;3.60;;
30151;SDS011;16963;26.018;-80.216;2022-07-23T13:27:22;15.07;;;4.78;;
30151;SDS011;16963;26.018;-80.216;2022-07-23T13:29:52;13.23;;;3.03;;
30151;SDS011;16963;26.018;-80.216;2022-07-23T13:32:19;20.80;;;4.10;;
30151;SDS011;16963;26.018;-80.216;2022-07-23T13:34:47;21.33;;;3.67;;
30151;SDS011;16963;26.018;-80.216;2022-07-23T13:38:59;17.45;;;4.05;;
30151;SDS011;16963;26.018;-80.216;2022-07-23T13:41:27;19.63;;;4.10;;
30151;SDS011;16963;26.018;-80.216;2022-07-23T13:43:59;17.80;;;3.88;;
30151;SDS011;16963;26.018;-80.216;2022-07-23T13:46:26;13.35;;;4.50;;
30151;SDS011;16963;26.018;-80.216;2022-07-23T13:48:54;14.13;;;3.40;;
30151;SDS011;16963;26.018;-80.216;2022-07-23T13:51:21;14.43;;;3.38;;
30151;SDS011;16963;26.018;-80.216;2022-07-23T13:53:52;17.05;;;4.25;;
30151;SDS011;16963;26.018;-80.216;2022-07-23T13:56:21;14.40;;;3.45;;
30151;SDS011;16963;26.018;-80.216;2022-07-23T13:58:49;12.02;;;3.10;;
30151;SDS011;16963;26.018;-80.216;2022-07-23T14:01:15;20.45;;;3.75;;
30151;SDS011;16963;26.018;-80.216;2022-07-23T14:03:53;24.80;;;3.97;;
30151;SDS011;16963;26.018;-80.216;2022-07-23T14:06:21;18.10;;;3.75;;
30151;SDS011;16963;26.018;-80.216;2022-07-23T14:08:59;13.82;;;3.88;;
30151;SDS011;16963;26.018;-80.216;2022-07-23T14:11:27;14.52;;;3.65;;
30151;SDS011;16963;26.018;-80.216;2022-07-23T14:13:58;17.20;;;4.00;;
30151;SDS011;16963;26.018;-80.216;2022-07-23T14:16:27;18.00;;;3.20;;
30151;SDS011;16963;26.018;-80.216;2022-07-23T14:18:55;14.35;;;3.25;;
30151;SDS011;16963;26.018;-80.216;2022-07-23T14:21:23;14.25;;;4.38;;
30151;SDS011;16963;26.018;-80.216;2022-07-23T14:25:34;16.17;;;3.30;;
30151;SDS011;16963;26.018;-80.216;2022-07-23T14:28:05;17.10;;;4.38;;
30151;SDS011;16963;26.018;-80.216;2022-07-23T14:30:34;18.23;;;4.00;;
30151;SDS011;16963;26.018;-80.216;2022-07-23T14:33:02;18.08;;;4.10;;
30151;SDS011;16963;26.018;-80.216;2022-07-23T14:35:30;17.52;;;4.13;;
30151;SDS011;16963;26.018;-80.216;2022-07-23T14:37:58;11.65;;;3.35;;
30151;SDS011;16963;26.018;-80.216;2022-07-23T14:40:26;15.60;;;3.60;;
30151;SDS011;16963;26.018;-80.216;2022-07-23T14:42:55;13.27;;;3.45;;
30151;SDS011;16963;26.018;-80.216;2022-07-23T14:47:16;14.20;;;4.10;;
30151;SDS011;16963;26.018;-80.216;2022-07-23T14:49:47;16.15;;;3.60;;
30151;SDS011;16963;26.018;-80.216;2022-07-23T14:52:16;20.85;;;3.85;;
30151;SDS011;16963;26.018;-80.216;2022-07-23T14:54:44;17.17;;;4.13;;
30151;SDS011;16963;26.018;-80.216;2022-07-23T14:57:11;15.88;;;3.45;;
30151;SDS011;16963;26.018;-80.216;2022-07-23T14:59:41;19.35;;;4.07;;
30151;SDS011;16963;26.018;-80.216;2022-07-23T15:02:09;14.88;;;3.30;;
30151;SDS011;16963;26.018;-80.216;2022-07-23T15:04:39;19.88;;;3.65;;
30151;SDS011;16963;26.018;-80.216;2022-07-23T15:07:08;13.75;;;3.33;;
30151;SDS011;16963;26.018;-80.216;2022-07-23T15:09:35;17.75;;;4.28;;
30151;SDS011;16963;26.018;-80.216;2022-07-23T15:12:12;12.30;;;3.75;;
30151;SDS011;16963;26.018;-80.216;2022-07-23T15:14:40;18.10;;;4.32;;
30151;SDS011;16963;26.018;-80.216;2022-07-23T15:17:09;17.08;;;4.10;;
30151;SDS011;16963;26.018;-80.216;2022-07-23T15:19:40;11.07;;;3.22;;
30151;SDS011;16963;26.018;-80.216;2022-07-23T15:22:08;9.40;;;2.95;;
30151;SDS011;16963;26.018;-80.216;2022-07-23T15:24:35;12.75;;;3.47;;
30151;SDS011;16963;26.018;-80.216;2022-07-23T15:27:03;11.25;;;3.42;;
30151;SDS011;16963;26.018;-80.216;2022-07-23T15:29:30;13.88;;;4.03;;
30151;SDS011;16963;26.018;-80.216;2022-07-23T15:32:00;15.40;;;4.17;;
30151;SDS011;16963;26.018;-80.216;2022-07-23T15:34:26;9.00;;;2.75;;
30151;SDS011;16963;26.018;-80.216;2022-07-23T15:39:30;25.67;;;6.72;;
30151;SDS011;16963;26.018;-80.216;2022-07-23T15:42:00;15.70;;;3.75;;
30151;SDS011;16963;26.018;-80.216;2022-07-23T15:44:29;13.80;;;4.45;;
30151;SDS011;16963;26.018;-80.216;2022-07-23T15:46:58;19.83;;;4.57;;
30151;SDS011;16963;26.018;-80.216;2022-07-23T15:49:26;21.63;;;4.40;;
30151;SDS011;16963;26.018;-80.216;2022-07-23T15:51:54;14.30;;;3.58;;
30151;SDS011;16963;26.018;-80.216;2022-07-23T15:54:23;13.43;;;3.50;;
30151;SDS011;16963;26.018;-80.216;2022-07-23T15:56:53;11.32;;;3.28;;
30151;SDS011;16963;26.018;-80.216;2022-07-23T16:01:56;11.40;;;2.83;;